Time;durP1;ratioP1;P1;durP2;ratioP2;P2;SDS_P1;SDS_P2;PMS_P1;PMS_P2;Temp;Humidity;BMP_temperature;BMP_pressure;BME280_temperature;BME280_humidity;BME280_pressure;Samples;Min_cycle;Max_cycle;Signal;HPM_P1;HPM_P2
2022/06/29 00:01:46;;;;;;;5.88;2.03;;;18.10;99.90;;;;;;5033503;28;20044;-32
2022/06/29 00:04:12;;;;;;;1.70;1.00;;;18.10;99.90;;;;;;5031461;28;20500;-32
2022/06/29 00:06:37;;;;;;;14.00;1.42;;;18.10;99.90;;;;;;5032873;28;20034;-30
2022/06/29 00:09:03;;;;;;;1.85;1.35;;;18.20;99.90;;;;;;5032589;28;20034;-50
2022/06/29 00:11:29;;;;;;;3.45;1.15;;;18.20;99.90;;;;;;5031964;28;20029;-38
2022/06/29 00:13:55;;;;;;;2.25;1.45;;;18.20;99.90;;;;;;5030388;28;20080;-41
2022/06/29 00:16:20;;;;;;;1.60;1.00;;;18.20;99.90;;;;;;5031891;28;20037;-38
2022/06/29 00:18:46;;;;;;;2.85;1.27;;;18.20;99.90;;;;;;5032581;28;20052;-39
2022/06/29 00:21:11;;;;;;;2.05;1.13;;;18.20;99.90;;;;;;5033351;28;20024;-34
2022/06/29 00:23:37;;;;;;;4.80;1.00;;;18.30;99.90;;;;;;5048598;28;20017;-31
2022/06/29 00:26:02;;;;;;;1.60;1.48;;;18.30;99.90;;;;;;5032272;28;20029;-34
2022/06/29 00:28:29;;;;;;;2.67;1.10;;;18.20;99.90;;;;;;5031878;28;20536;-28
2022/06/29 00:30:55;;;;;;;6.00;1.50;;;18.30;99.90;;;;;;5032517;28;20033;-28
2022/06/29 00:33:21;;;;;;;4.15;1.15;;;18.20;99.90;;;;;;5033058;28;20458;-29
2022/06/29 00:35:47;;;;;;;2.83;1.27;;;18.20;99.90;;;;;;5032241;28;20075;-30
2022/06/29 00:38:13;;;;;;;6.18;1.13;;;18.20;99.90;;;;;;5027392;28;20514;-32
2022/06/29 00:40:38;;;;;;;3.67;1.17;;;18.30;99.90;;;;;;5031730;28;20029;-40
2022/06/29 00:43:04;;;;;;;4.00;0.90;;;18.20;99.90;;;;;;5033086;28;20041;-43
2022/06/29 00:45:30;;;;;;;2.83;1.00;;;18.30;99.90;;;;;;5032563;28;20136;-33
2022/06/29 00:47:55;;;;;;;3.35;1.20;;;18.20;99.90;;;;;;5032409;28;20498;-46
2022/06/29 00:50:21;;;;;;;4.35;1.10;;;18.20;99.90;;;;;;5030672;28;20032;-35
2022/06/29 00:52:47;;;;;;;0.90;0.75;;;18.20;99.90;;;;;;5031603;28;20040;-32
2022/06/29 00:55:18;;;;;;;2.47;0.93;;;18.20;99.90;;;;;;5030626;28;20487;-28
2022/06/29 00:57:45;;;;;;;0.80;0.75;;;18.10;99.90;;;;;;5033055;28;20501;-28
2022/06/29 01:00:13;;;;;;;1.65;1.15;;;18.10;99.90;;;;;;5032417;28;20022;-29
2022/06/29 01:02:38;;;;;;;1.58;1.10;;;18.10;99.90;;;;;;5033197;28;20140;-30
2022/06/29 01:05:05;;;;;;;1.30;0.82;;;18.10;99.90;;;;;;5034494;28;20061;-41
2022/06/29 01:07:33;;;;;;;1.10;0.97;;;18.00;99.90;;;;;;5036904;28;20083;-31
2022/06/29 01:10:00;;;;;;;1.67;0.65;;;18.00;99.90;;;;;;5035712;28;20276;-30
2022/06/29 01:12:26;;;;;;;1.85;1.13;;;18.00;99.90;;;;;;5034552;28;20103;-30
2022/06/29 01:14:53;;;;;;;1.02;0.90;;;17.90;99.90;;;;;;5035139;28;20445;-33
2022/06/29 01:17:21;;;;;;;5.72;1.25;;;17.90;99.90;;;;;;5035818;28;20048;-33
2022/06/29 01:19:46;;;;;;;;;;;17.80;99.90;;;;;;5034324;28;20030;-38
2022/06/29 01:22:20;;;;;;;1.60;1.02;;;17.80;99.90;;;;;;5034945;28;19909;-38
2022/06/29 01:24:47;;;;;;;3.35;1.27;;;17.80;99.90;;;;;;5036588;28;20017;-38
2022/06/29 01:27:14;;;;;;;3.00;1.10;;;17.80;99.90;;;;;;5036553;28;20034;-40
2022/06/29 01:29:40;;;;;;;1.83;0.95;;;17.70;99.90;;;;;;5035178;28;20767;-40
2022/06/29 01:32:07;;;;;;;7.00;0.98;;;17.70;99.90;;;;;;5034293;28;20033;-37
2022/06/29 01:34:33;;;;;;;5.38;1.85;;;17.70;99.90;;;;;;5034581;28;20101;-37
2022/06/29 01:36:59;;;;;;;0.80;0.80;;;17.70;99.90;;;;;;5035391;28;20494;-37
2022/06/29 01:39:26;;;;;;;1.38;1.27;;;17.70;99.90;;;;;;5036034;28;20014;-38
2022/06/29 01:41:52;;;;;;;1.30;0.80;;;17.60;99.90;;;;;;5034141;28;20033;-38
2022/06/29 01:44:18;;;;;;;1.67;1.05;;;17.70;99.90;;;;;;5036206;28;20068;-37
2022/06/29 01:46:43;;;;;;;4.40;0.88;;;17.70;99.90;;;;;;5035377;28;20034;-38
2022/06/29 01:49:09;;;;;;;2.72;1.23;;;17.70;99.90;;;;;;5034561;28;20115;-38
2022/06/29 01:51:35;;;;;;;1.65;1.13;;;17.80;99.90;;;;;;5032753;28;20053;-37
2022/06/29 01:54:01;;;;;;;6.25;1.10;;;17.80;99.90;;;;;;5035953;28;20379;-37
2022/06/29 01:56:26;;;;;;;8.68;1.60;;;17.70;99.90;;;;;;5035243;28;20063;-29
2022/06/29 01:58:52;;;;;;;7.10;1.00;;;17.80;99.90;;;;;;5035921;28;20533;-29
2022/06/29 02:01:17;;;;;;;1.33;1.23;;;17.70;99.90;;;;;;5031716;28;20036;-33
2022/06/29 02:03:44;;;;;;;2.10;1.27;;;17.70;99.90;;;;;;5035655;28;20021;-30
2022/06/29 02:06:10;;;;;;;3.27;1.13;;;17.70;99.90;;;;;;5034840;28;20025;-30
2022/06/29 02:08:36;;;;;;;4.72;1.77;;;17.80;99.90;;;;;;5034701;28;20033;-56
2022/06/29 02:11:02;;;;;;;3.45;1.52;;;17.90;99.90;;;;;;5035853;28;20049;-38
2022/06/29 02:13:28;;;;;;;1.95;0.98;;;17.90;99.90;;;;;;5032159;28;20047;-37
2022/06/29 02:15:54;;;;;;;5.88;1.30;;;17.90;99.90;;;;;;5034743;28;20537;-36
2022/06/29 02:18:19;;;;;;;4.03;1.08;;;17.90;99.90;;;;;;5034896;28;20021;-38
2022/06/29 02:20:45;;;;;;;2.17;1.10;;;17.90;99.90;;;;;;5033985;28;20087;-38
2022/06/29 02:23:11;;;;;;;1.13;1.00;;;17.90;99.90;;;;;;5033379;28;20025;-37
2022/06/29 02:25:36;;;;;;;2.65;1.27;;;17.90;99.90;;;;;;5034500;28;20029;-36
2022/06/29 02:28:02;;;;;;;1.10;1.00;;;17.90;99.90;;;;;;5035344;28;20470;-37
2022/06/29 02:35:56;;;;;;;2.83;1.10;;;17.90;99.90;;;;;;5034458;28;20129;-36
2022/06/29 02:38:22;;;;;;;1.65;1.20;;;17.80;99.90;;;;;;5034304;28;20100;-37
2022/06/29 02:40:48;;;;;;;1.00;1.00;;;17.80;99.90;;;;;;5034488;28;20061;-37
2022/06/29 02:43:13;;;;;;;1.05;1.02;;;17.80;99.90;;;;;;5034194;28;20417;-37
2022/06/29 02:45:39;;;;;;;2.05;1.10;;;17.80;99.90;;;;;;5033528;28;20083;-37
2022/06/29 02:48:04;;;;;;;2.85;1.20;;;17.70;99.90;;;;;;5034372;28;20034;-37
2022/06/29 02:50:30;;;;;;;1.95;1.20;;;17.70;99.90;;;;;;5032215;28;20021;-38
2022/06/29 02:52:56;;;;;;;0.90;0.90;;;17.70;99.90;;;;;;5033468;28;20029;-36
2022/06/29 02:55:21;;;;;;;1.50;1.40;;;17.70;99.90;;;;;;5034893;28;20488;-38
2022/06/29 02:57:47;;;;;;;1.05;0.90;;;17.70;99.90;;;;;;5034857;28;20033;-38
2022/06/29 03:00:13;;;;;;;2.20;1.10;;;17.70;99.90;;;;;;5033103;28;20036;-37
2022/06/29 03:02:39;;;;;;;1.48;1.10;;;17.70;99.90;;;;;;5031958;28;20108;-38
2022/06/29 03:05:06;;;;;;;1.70;1.52;;;17.70;99.90;;;;;;5033713;28;20546;-37
2022/06/29 03:07:31;;;;;;;3.00;1.40;;;17.70;99.90;;;;;;5034549;28;20033;-38
2022/06/29 03:09:57;;;;;;;1.13;1.10;;;17.70;99.90;;;;;;5034599;28;20025;-38
2022/06/29 03:12:23;;;;;;;3.22;1.23;;;17.70;99.90;;;;;;5033362;28;20490;-39
2022/06/29 03:14:48;;;;;;;2.33;1.10;;;17.70;99.90;;;;;;5032765;28;20037;-34
2022/06/29 03:17:14;;;;;;;5.53;1.33;;;17.60;99.90;;;;;;5049760;28;20580;-30
2022/06/29 03:19:40;;;;;;;2.83;1.38;;;17.60;99.90;;;;;;5034350;28;20060;-36
2022/06/29 03:22:05;;;;;;;2.88;1.50;;;17.60;99.90;;;;;;5033346;28;20112;-29
2022/06/29 03:24:31;;;;;;;1.63;1.33;;;17.60;99.90;;;;;;5033789;28;20064;-30
2022/06/29 03:26:57;;;;;;;1.42;1.25;;;17.60;99.90;;;;;;5033862;28;20029;-29
2022/06/29 03:29:22;;;;;;;1.52;1.20;;;17.50;99.90;;;;;;5034216;28;20397;-38
2022/06/29 03:31:48;;;;;;;3.08;1.58;;;17.50;99.90;;;;;;5032485;28;20041;-38
2022/06/29 03:34:14;;;;;;;2.28;1.15;;;17.50;99.90;;;;;;5047463;28;20573;-36
2022/06/29 03:36:40;;;;;;;1.75;1.65;;;17.50;99.90;;;;;;5032376;28;20025;-30
2022/06/29 03:39:05;;;;;;;2.38;1.45;;;17.50;99.90;;;;;;5034059;28;20028;-29
2022/06/29 03:41:31;;;;;;;1.27;1.05;;;17.50;99.90;;;;;;5033960;28;20488;-28
2022/06/29 03:43:56;;;;;;;1.55;1.45;;;17.50;99.90;;;;;;5033269;28;20497;-30
2022/06/29 03:46:22;;;;;;;1.30;1.20;;;17.50;99.90;;;;;;5033333;28;20037;-31
2022/06/29 03:48:48;;;;;;;3.63;1.80;;;17.50;99.90;;;;;;5033863;28;20482;-31
2022/06/29 03:51:13;;;;;;;1.83;1.45;;;17.60;99.90;;;;;;5033805;28;20264;-30
2022/06/29 03:53:39;;;;;;;4.03;1.70;;;17.60;99.90;;;;;;5032844;28;20401;-31
2022/06/29 03:56:05;;;;;;;2.50;1.23;;;17.60;99.90;;;;;;5033670;28;20025;-31
2022/06/29 03:58:31;;;;;;;2.28;1.50;;;17.60;99.90;;;;;;5033000;28;20018;-30
2022/06/29 04:00:57;;;;;;;4.15;1.30;;;17.60;99.90;;;;;;5031818;28;20048;-31
2022/06/29 04:03:22;;;;;;;4.95;1.60;;;17.60;99.90;;;;;;5031554;28;20530;-31
2022/06/29 04:05:48;;;;;;;2.95;1.75;;;17.60;99.90;;;;;;5033581;28;20025;-29
2022/06/29 04:08:13;;;;;;;5.70;2.33;;;17.60;99.90;;;;;;5033706;28;20047;-32
2022/06/29 04:10:39;;;;;;;3.92;1.60;;;17.60;99.90;;;;;;5032467;28;20029;-32
2022/06/29 04:13:04;;;;;;;1.85;1.67;;;17.60;99.90;;;;;;5030993;28;20077;-30
2022/06/29 04:15:30;;;;;;;3.17;2.25;;;17.60;99.90;;;;;;5032571;28;20508;-29
2022/06/29 04:17:56;;;;;;;2.38;1.85;;;17.60;99.90;;;;;;5031751;28;20098;-30
2022/06/29 04:23:05;;;;;;;1.63;1.52;;;17.60;99.90;;;;;;5032783;28;20048;-33
2022/06/29 04:25:31;;;;;;;2.88;1.80;;;17.50;99.90;;;;;;5033328;28;20022;-48
2022/06/29 04:27:57;;;;;;;3.55;1.65;;;17.60;99.90;;;;;;5033362;28;20021;-37
2022/06/29 04:30:22;;;;;;;4.97;1.95;;;17.60;99.90;;;;;;5031081;28;20496;-39
2022/06/29 04:32:48;;;;;;;1.70;1.60;;;17.70;99.90;;;;;;5032182;28;20022;-38
2022/06/29 04:35:13;;;;;;;2.08;1.63;;;17.70;99.90;;;;;;5032213;28;20033;-38
2022/06/29 04:37:39;;;;;;;1.65;1.55;;;17.70;99.90;;;;;;5031364;28;20030;-31
2022/06/29 04:40:05;;;;;;;3.55;1.75;;;17.80;99.90;;;;;;5032192;28;20033;-32
2022/06/29 04:42:31;;;;;;;4.22;2.15;;;17.80;99.90;;;;;;5033002;28;20036;-30
2022/06/29 04:44:56;;;;;;;2.25;2.05;;;17.90;99.90;;;;;;5032984;28;20022;-32
2022/06/29 04:47:22;;;;;;;4.85;1.70;;;17.90;99.90;;;;;;5032477;28;20104;-34
2022/06/29 04:49:48;;;;;;;1.77;1.67;;;17.90;99.90;;;;;;5031669;28;20059;-31
2022/06/29 04:52:13;;;;;;;2.40;1.77;;;17.90;99.90;;;;;;5031509;28;20030;-34
2022/06/29 04:54:39;;;;;;;3.33;1.95;;;17.90;99.90;;;;;;5032241;28;20060;-32
2022/06/29 04:57:08;;;;;;;4.30;2.10;;;17.90;99.90;;;;;;5032075;28;20076;-38
2022/06/29 04:59:34;;;;;;;4.22;2.08;;;18.00;99.90;;;;;;5029081;28;20033;-39
2022/06/29 05:01:59;;;;;;;2.13;1.73;;;18.10;99.90;;;;;;5032219;28;20053;-30
2022/06/29 05:04:25;;;;;;;1.75;1.65;;;18.10;99.90;;;;;;5031992;28;20025;-48
2022/06/29 05:06:51;;;;;;;4.15;2.42;;;18.10;99.90;;;;;;5031524;28;20030;-37
2022/06/29 05:09:16;;;;;;;8.27;2.20;;;18.10;99.90;;;;;;5032302;28;20165;-37
2022/06/29 05:11:42;;;;;;;2.13;1.90;;;18.20;99.90;;;;;;5030679;28;20049;-37
2022/06/29 05:14:10;;;;;;;3.47;2.47;;;18.20;99.90;;;;;;5031715;28;20604;-31
2022/06/29 05:16:36;;;;;;;4.20;2.88;;;18.20;99.90;;;;;;5031291;28;20355;-30
2022/06/29 05:19:02;;;;;;;2.15;1.95;;;18.20;99.90;;;;;;5032414;28;20033;-32
2022/06/29 05:21:27;;;;;;;5.68;2.67;;;18.30;99.90;;;;;;5031916;28;20021;-34
2022/06/29 05:23:53;;;;;;;5.45;2.33;;;18.30;99.90;;;;;;5032058;28;20029;-32
2022/06/29 05:26:19;;;;;;;4.93;2.38;;;18.40;99.90;;;;;;5031210;28;20540;-32
2022/06/29 05:28:44;;;;;;;3.42;2.40;;;18.50;99.90;;;;;;5032846;28;20381;-35
2022/06/29 05:31:10;;;;;;;11.82;2.45;;;18.50;99.90;;;;;;5030797;28;20084;-30
2022/06/29 05:33:38;;;;;;;4.10;2.30;;;18.50;99.90;;;;;;5031176;28;20069;-30
2022/06/29 05:36:07;;;;;;;5.57;2.58;;;18.60;99.90;;;;;;5029061;28;20044;-32
2022/06/29 05:38:33;;;;;;;6.38;2.55;;;18.70;99.90;;;;;;5032396;28;20482;-37
2022/06/29 05:41:02;;;;;;;2.95;2.50;;;18.80;99.90;;;;;;5032450;28;20355;-59
2022/06/29 05:43:30;;;;;;;4.70;2.30;;;18.90;99.90;;;;;;5032437;28;20036;-37
2022/06/29 05:45:56;;;;;;;;;;;19.00;99.90;;;;;;5031938;28;20040;-39
2022/06/29 05:48:22;;;;;;;3.28;2.55;;;19.00;99.90;;;;;;5029167;28;19909;-40
2022/06/29 05:50:48;;;;;;;8.43;4.10;;;19.10;99.90;;;;;;5034852;28;20471;-39
2022/06/29 05:53:14;;;;;;;9.02;3.25;;;19.20;99.90;;;;;;5034058;28;20057;-37
2022/06/29 05:55:40;;;;;;;7.20;2.58;;;19.30;99.90;;;;;;5035938;28;20029;-36
2022/06/29 05:58:06;;;;;;;3.88;2.28;;;19.40;99.90;;;;;;5035045;28;20531;-33
2022/06/29 06:00:32;;;;;;;2.75;2.35;;;19.40;99.90;;;;;;5034106;28;20104;-33
2022/06/29 06:02:58;;;;;;;3.53;3.20;;;19.50;99.90;;;;;;5034850;28;20025;-34
2022/06/29 06:05:23;;;;;;;8.00;2.75;;;19.50;99.90;;;;;;5030920;28;20033;-31
2022/06/29 06:07:49;;;;;;;7.32;3.22;;;19.80;99.90;;;;;;5033652;28;20061;-33
2022/06/29 06:10:15;;;;;;;3.22;2.92;;;20.00;99.90;;;;;;5033888;28;20490;-33
2022/06/29 06:12:40;;;;;;;4.68;2.60;;;20.30;99.90;;;;;;5035417;28;20045;-30
2022/06/29 06:15:07;;;;;;;6.10;3.25;;;20.50;99.90;;;;;;5034904;28;20175;-30
2022/06/29 06:17:33;;;;;;;5.07;2.38;;;20.80;99.90;;;;;;5034636;28;20022;-30
2022/06/29 06:19:59;;;;;;;7.45;3.25;;;21.60;99.90;;;;;;5033606;28;20494;-30
2022/06/29 06:22:25;;;;;;;3.97;2.85;;;22.40;99.90;;;;;;5034199;28;20115;-63
2022/06/29 06:24:51;;;;;;;3.38;2.65;;;23.40;99.90;;;;;;5035392;28;20026;-38
2022/06/29 06:27:17;;;;;;;4.22;2.50;;;24.90;98.90;;;;;;5033744;28;20058;-30
2022/06/29 06:29:43;;;;;;;2.95;2.40;;;26.50;97.80;;;;;;5034581;28;20041;-34
2022/06/29 06:32:09;;;;;;;8.43;2.60;;;27.90;96.10;;;;;;5033797;28;20018;-31
2022/06/29 06:34:35;;;;;;;2.30;2.10;;;28.50;95.40;;;;;;5033246;28;20034;-31
2022/06/29 06:37:01;;;;;;;3.47;2.40;;;28.90;94.90;;;;;;5033745;28;20083;-32
2022/06/29 06:39:27;;;;;;;4.18;2.30;;;29.80;94.20;;;;;;5031920;28;20497;-39
2022/06/29 06:41:53;;;;;;;5.15;2.70;;;30.40;93.80;;;;;;5034697;28;20057;-39
2022/06/29 06:44:18;;;;;;;3.72;2.13;;;31.00;92.90;;;;;;5035086;28;20049;-30
2022/06/29 06:46:48;;;;;;;2.92;2.17;;;31.20;92.80;;;;;;5031974;28;20026;-36
2022/06/29 06:49:23;;;;;;;4.88;2.35;;;31.30;92.70;;;;;;5031422;28;20025;-31
2022/06/29 06:51:52;;;;;;;2.53;1.92;;;31.10;92.40;;;;;;5031900;28;20474;-32
2022/06/29 06:54:18;;;;;;;5.78;1.80;;;29.90;93.20;;;;;;5033849;28;20021;-34
2022/06/29 06:56:44;;;;;;;3.05;2.08;;;28.60;94.40;;;;;;5035020;28;20100;-30
2022/06/29 06:59:09;;;;;;;2.45;2.00;;;27.40;95.20;;;;;;5031921;28;20037;-30
2022/06/29 07:01:35;;;;;;;7.55;2.53;;;26.60;95.30;;;;;;5032408;28;20108;-33
2022/06/29 07:04:01;;;;;;;2.40;1.92;;;26.20;95.70;;;;;;5034593;28;20028;-31
2022/06/29 07:06:26;;;;;;;5.55;2.40;;;26.30;96.00;;;;;;5032802;28;20401;-39
2022/06/29 07:08:54;;;;;;;6.22;2.35;;;26.50;96.00;;;;;;5033691;28;20100;-31
2022/06/29 07:11:19;;;;;;;;;;;26.70;95.80;;;;;;5033730;28;20095;-32
2022/06/29 07:13:45;;;;;;;2.72;1.98;;;27.10;95.70;;;;;;5034264;28;19920;-32
2022/06/29 07:16:11;;;;;;;2.78;2.15;;;27.60;94.90;;;;;;5033512;28;20529;-35
2022/06/29 07:18:37;;;;;;;3.65;2.10;;;28.50;94.60;;;;;;5033620;28;20017;-43
2022/06/29 07:21:03;;;;;;;7.18;1.98;;;29.30;94.30;;;;;;5032880;28;20359;-33
2022/06/29 07:23:28;;;;;;;3.00;2.20;;;30.30;93.60;;;;;;5017559;28;20021;-34
2022/06/29 07:25:55;;;;;;;2.80;1.90;;;30.80;93.10;;;;;;5034415;28;20032;-31
2022/06/29 07:28:21;;;;;;;5.18;2.20;;;31.10;93.00;;;;;;5031393;28;20022;-40
2022/06/29 07:30:47;;;;;;;4.68;2.20;;;31.20;92.60;;;;;;5031804;28;20541;-42
2022/06/29 07:33:12;;;;;;;3.85;2.33;;;30.80;92.50;;;;;;5034039;28;20469;-48
2022/06/29 07:35:38;;;;;;;7.28;1.90;;;30.40;92.70;;;;;;5032679;28;20025;-37
2022/06/29 07:38:05;;;;;;;4.70;1.98;;;30.00;93.30;;;;;;5033870;28;20105;-39
2022/06/29 07:40:31;;;;;;;6.03;1.90;;;29.80;93.20;;;;;;5032979;28;20060;-38
2022/06/29 07:42:57;;;;;;;5.07;1.90;;;29.50;93.40;;;;;;5033555;28;20065;-40
2022/06/29 07:45:22;;;;;;;6.47;1.92;;;29.40;93.70;;;;;;5032272;28;20025;-44
2022/06/29 07:48:07;;;;;;;4.72;2.05;;;29.50;93.80;;;;;;5033796;28;20095;-40
2022/06/29 07:50:33;;;;;;;7.32;2.33;;;29.30;94.30;;;;;;5034071;28;20486;-41
2022/06/29 07:52:59;;;;;;;4.85;1.95;;;28.90;94.30;;;;;;5032122;28;20087;-40
2022/06/29 07:55:27;;;;;;;1.48;1.35;;;28.50;94.40;;;;;;5032510;28;20025;-41
2022/06/29 07:57:53;;;;;;;2.05;1.25;;;28.10;94.80;;;;;;5030970;28;20466;-37
2022/06/29 08:00:19;;;;;;;4.55;1.75;;;28.00;95.10;;;;;;5033659;28;20030;-39
2022/06/29 08:02:45;;;;;;;4.28;1.90;;;28.10;94.70;;;;;;5035511;28;20465;-39
2022/06/29 08:05:11;;;;;;;1.80;1.70;;;28.00;94.50;;;;;;5036614;28;20068;-36
2022/06/29 08:07:36;;;;;;;2.78;1.70;;;27.80;94.70;;;;;;5026493;28;20065;-30
2022/06/29 08:10:03;;;;;;;4.05;1.80;;;27.80;94.70;;;;;;5032988;28;20112;-30
2022/06/29 08:12:29;;;;;;;12.13;1.52;;;27.90;94.80;;;;;;5031865;28;20528;-32
2022/06/29 08:14:55;;;;;;;7.22;1.73;;;28.00;94.40;;;;;;5027995;28;20037;-34
2022/06/29 08:17:20;;;;;;;3.58;1.60;;;28.10;94.40;;;;;;5027596;28;20515;-39
2022/06/29 08:19:46;;;;;;;2.72;1.70;;;28.30;94.50;;;;;;5031770;28;20041;-37
2022/06/29 08:22:12;;;;;;;3.72;2.13;;;28.50;93.80;;;;;;5031124;28;20057;-40
2022/06/29 08:24:37;;;;;;;2.17;1.40;;;28.70;94.10;;;;;;5032657;28;20022;-36
2022/06/29 08:27:03;;;;;;;3.72;2.63;;;29.10;93.50;;;;;;5027228;28;20044;-30
2022/06/29 08:29:48;;;;;;;4.28;1.70;;;29.30;93.00;;;;;;5031547;28;20508;-37
2022/06/29 08:32:13;;;;;;;2.67;1.60;;;29.40;93.50;;;;;;5044252;28;20495;-31
2022/06/29 08:34:39;;;;;;;6.93;1.65;;;29.60;92.60;;;;;;5023522;28;20037;-32
2022/06/29 08:37:05;;;;;;;2.90;1.70;;;29.60;92.60;;;;;;5028334;28;20053;-32
2022/06/29 08:39:31;;;;;;;3.83;1.80;;;29.60;92.70;;;;;;5031337;28;20232;-33
2022/06/29 08:42:04;;;;;;;2.53;1.47;;;29.70;92.70;;;;;;5031726;28;20564;-31
2022/06/29 08:44:32;;;;;;;3.58;1.38;;;29.90;92.30;;;;;;5031372;28;20040;-36
2022/06/29 08:47:03;;;;;;;3.05;2.13;;;30.00;92.40;;;;;;5027358;28;20482;-37
2022/06/29 08:49:31;;;;;;;1.92;1.60;;;30.20;92.20;;;;;;5027345;28;20026;-38
2022/06/29 08:51:57;;;;;;;3.47;1.63;;;30.40;91.90;;;;;;5028052;28;20497;-32
2022/06/29 08:54:25;;;;;;;2.80;1.60;;;30.20;92.10;;;;;;5013723;28;20026;-39
2022/06/29 08:56:53;;;;;;;2.70;1.95;;;30.20;91.60;;;;;;5029289;28;20059;-33
2022/06/29 08:59:21;;;;;;;3.00;1.70;;;30.30;92.40;;;;;;5032420;28;20564;-31
2022/06/29 09:01:51;;;;;;;2.63;1.50;;;30.90;91.90;;;;;;5031321;28;20037;-37
2022/06/29 09:04:18;;;;;;;2.72;1.10;;;31.30;91.30;;;;;;5031878;28;20543;-30
2022/06/29 09:06:44;;;;;;;2.20;1.35;;;31.70;90.80;;;;;;5031692;28;20435;-30
2022/06/29 09:09:10;;;;;;;2.90;1.45;;;31.60;89.60;;;;;;5047105;28;20022;-30
2022/06/29 09:11:41;;;;;;;1.27;1.00;;;31.60;90.00;;;;;;5031737;28;20017;-30
2022/06/29 09:14:10;;;;;;;2.22;1.20;;;31.70;90.30;;;;;;5031402;28;20464;-34
2022/06/29 09:16:53;;;;;;;0.90;0.90;;;31.90;88.60;;;;;;5032841;28;20525;-32
2022/06/29 09:19:21;;;;;;;1.92;0.82;;;32.00;87.80;;;;;;5026035;28;20040;-31
2022/06/29 09:21:51;;;;;;;2.08;1.00;;;32.10;87.90;;;;;;5031545;28;20026;-32
2022/06/29 09:24:19;;;;;;;1.23;0.90;;;31.90;88.40;;;;;;5035185;28;20477;-33
2022/06/29 09:26:52;;;;;;;1.33;1.13;;;31.90;86.40;;;;;;5035022;28;20091;-31
2022/06/29 09:29:21;;;;;;;1.20;0.77;;;31.90;87.20;;;;;;5036709;28;20438;-48
2022/06/29 09:32:04;;;;;;;2.13;0.90;;;31.90;88.30;;;;;;5035515;28;20033;-40
2022/06/29 09:34:34;;;;;;;1.30;1.20;;;31.80;86.00;;;;;;5035802;28;20434;-38
2022/06/29 09:37:01;;;;;;;2.58;1.10;;;31.70;85.90;;;;;;5033675;28;20013;-38
2022/06/29 09:39:33;;;;;;;2.75;0.80;;;31.50;86.20;;;;;;5035036;28;20017;-62
2022/06/29 09:41:59;;;;;;;1.70;0.88;;;31.30;87.60;;;;;;5031528;28;20100;-40
2022/06/29 09:44:25;;;;;;;3.63;1.10;;;31.40;85.30;;;;;;5034387;28;20488;-34
2022/06/29 09:46:55;;;;;;;1.30;0.90;;;31.40;85.70;;;;;;5031747;28;20128;-32
2022/06/29 09:49:25;;;;;;;1.90;1.00;;;31.40;87.00;;;;;;5035278;28;20450;-31
2022/06/29 09:51:54;;;;;;;1.75;1.13;;;31.30;86.50;;;;;;5051034;28;20044;-31
2022/06/29 09:54:22;;;;;;;1.42;1.33;;;31.30;86.20;;;;;;5035281;28;20029;-36
2022/06/29 09:56:50;;;;;;;1.00;1.00;;;31.20;85.40;;;;;;5034171;28;20511;-32
2022/06/29 10:02:34;;;;;;;4.18;1.35;;;30.90;86.10;;;;;;5035063;28;20040;-31
2022/06/29 10:05:04;;;;;;;2.78;1.13;;;30.90;86.70;;;;;;5049368;28;20494;-31
2022/06/29 10:07:31;;;;;;;1.88;1.10;;;31.00;85.10;;;;;;5030177;28;20589;-40
2022/06/29 10:09:58;;;;;;;2.13;0.90;;;31.00;86.50;;;;;;5035187;28;20049;-40
2022/06/29 10:15:33;;;;;;;1.20;1.10;;;31.50;86.70;;;;;;5032187;28;20071;-40
2022/06/29 10:18:22;;;;;;;2.53;1.08;;;32.10;85.60;;;;;;5034959;28;20083;-40
2022/06/29 10:20:49;;;;;;;1.95;1.27;;;32.50;84.70;;;;;;5033833;28;20034;-41
2022/06/29 10:23:48;;;;;;;2.88;1.23;;;32.90;84.70;;;;;;5034068;28;20473;-40
2022/06/29 10:28:55;;;;;;;3.33;1.20;;;33.50;84.30;;;;;;5034426;28;20485;-41
2022/06/29 10:31:51;;;;;;;4.82;1.02;;;33.60;83.50;;;;;;5033513;28;20026;-46
2022/06/29 10:34:41;;;;;;;2.97;1.02;;;33.50;82.70;;;;;;5032975;28;20056;-41
2022/06/29 10:37:09;;;;;;;1.27;1.17;;;33.10;82.80;;;;;;5035450;28;20512;-39
2022/06/29 10:39:49;;;;;;;1.48;1.38;;;32.60;82.20;;;;;;5033907;28;20025;-41
2022/06/29 10:45:27;;;;;;;1.63;1.23;;;31.90;84.90;;;;;;5032974;28;20531;-42
2022/06/29 10:47:52;;;;;;;3.97;1.05;;;31.40;85.30;;;;;;5033646;28;20143;-31
2022/06/29 10:50:23;;;;;;;1.90;1.43;;;30.90;85.40;;;;;;5031828;28;20097;-35
2022/06/29 10:53:02;;;;;;;1.83;1.10;;;30.60;85.90;;;;;;5034540;28;20504;-32
2022/06/29 10:55:30;;;;;;;2.40;1.10;;;30.30;84.80;;;;;;5034077;28;20466;-38
2022/06/29 10:57:57;;;;;;;0.93;0.80;;;30.20;86.40;;;;;;5034158;28;20528;-29
2022/06/29 11:00:24;;;;;;;2.03;1.02;;;30.30;86.20;;;;;;5034691;28;20024;-43
2022/06/29 11:02:50;;;;;;;;;;;30.60;86.90;;;;;;5026586;28;20533;-32
2022/06/29 11:05:16;;;;;;;2.13;1.20;;;30.80;86.70;;;;;;5014856;28;19938;-32
2022/06/29 11:13:23;;;;;;;4.20;0.90;;;31.00;88.40;;;;;;5046686;28;20056;-33
2022/06/29 11:15:50;;;;;;;1.42;0.98;;;31.00;88.90;;;;;;5054838;28;20405;-36
2022/06/29 11:18:29;;;;;;;1.70;1.00;;;31.00;86.40;;;;;;5054307;28;20492;-31
2022/06/29 11:21:02;;;;;;;0.80;0.80;;;30.90;87.10;;;;;;5042921;28;20026;-31
2022/06/29 11:23:30;;;;;;;2.72;1.92;;;30.90;87.90;;;;;;5034041;28;20017;-31
2022/06/29 11:25:56;;;;;;;3.75;1.30;;;30.80;87.80;;;;;;5033052;28;20481;-30
2022/06/29 11:28:30;;;;;;;2.13;1.30;;;30.60;90.00;;;;;;5042181;28;20026;-31
2022/06/29 11:31:03;;;;;;;2.85;1.20;;;30.20;89.40;;;;;;5029683;28;20026;-30
2022/06/29 11:33:31;;;;;;;2.63;1.45;;;30.00;88.80;;;;;;5047709;28;20034;-33
2022/06/29 11:36:03;;;;;;;2.55;1.20;;;29.80;88.70;;;;;;5031376;28;20179;-32
2022/06/29 11:38:29;;;;;;;1.65;1.55;;;29.60;89.30;;;;;;5029736;28;20497;-30
2022/06/29 11:40:55;;;;;;;2.83;1.70;;;29.70;89.70;;;;;;5031404;28;20033;-31
2022/06/29 11:43:21;;;;;;;1.75;0.85;;;29.70;89.00;;;;;;5031724;28;20022;-34
2022/06/29 11:45:57;;;;;;;1.05;0.95;;;29.70;87.00;;;;;;5031156;28;20482;-33
2022/06/29 11:48:25;;;;;;;0.93;0.80;;;29.90;86.40;;;;;;5032590;28;20478;-38
2022/06/29 11:50:56;;;;;;;1.25;0.98;;;30.20;88.70;;;;;;5031456;28;20021;-35
2022/06/29 11:53:52;;;;;;;3.05;1.10;;;30.60;87.10;;;;;;5026903;28;20405;-31
2022/06/29 11:56:22;;;;;;;1.00;0.80;;;30.60;87.00;;;;;;5028577;28;20490;-33
2022/06/29 11:58:50;;;;;;;2.42;0.98;;;30.40;88.40;;;;;;5027342;28;20029;-30
2022/06/29 12:01:20;;;;;;;1.50;1.00;;;30.30;87.40;;;;;;5031758;28;20374;-37
2022/06/29 12:03:57;;;;;;;4.35;1.63;;;30.20;86.70;;;;;;5029389;28;20033;-30
2022/06/29 12:06:27;;;;;;;4.68;1.15;;;30.10;86.30;;;;;;5026671;28;20053;-34
2022/06/29 12:08:55;;;;;;;1.17;1.08;;;29.90;86.30;;;;;;5028565;28;20485;-36
2022/06/29 12:11:21;;;;;;;1.80;1.30;;;29.80;87.60;;;;;;5029760;28;20057;-45
2022/06/29 12:13:47;;;;;;;4.28;1.33;;;29.70;87.20;;;;;;5030863;28;20072;-40
2022/06/29 12:16:13;;;;;;;2.15;1.13;;;29.40;88.30;;;;;;5031773;28;20022;-38
2022/06/29 12:18:40;;;;;;;1.35;1.08;;;29.20;89.00;;;;;;5032816;28;20124;-38
2022/06/29 12:21:06;;;;;;;0.98;0.85;;;28.90;87.90;;;;;;5033413;28;20063;-40
2022/06/29 12:23:31;;;;;;;1.67;1.48;;;28.70;89.60;;;;;;5031894;28;20020;-40
2022/06/29 12:26:00;;;;;;;3.20;1.33;;;28.40;89.60;;;;;;5031547;28;20036;-39
2022/06/29 12:28:26;;;;;;;2.67;1.23;;;28.30;89.80;;;;;;5031534;28;20025;-40
2022/06/29 12:30:52;;;;;;;2.35;1.17;;;28.20;90.30;;;;;;5029921;28;20028;-41
2022/06/29 12:33:19;;;;;;;2.00;1.38;;;28.10;90.00;;;;;;5028938;28;20385;-39
2022/06/29 12:35:45;;;;;;;2.35;1.17;;;28.40;90.40;;;;;;5050626;28;20499;-43
2022/06/29 12:38:11;;;;;;;1.20;1.10;;;28.90;88.10;;;;;;5053171;28;20415;-36
2022/06/29 12:40:37;;;;;;;2.42;1.52;;;29.00;89.20;;;;;;5053121;28;20088;-34
2022/06/29 12:43:03;;;;;;;4.13;1.10;;;28.90;87.60;;;;;;5052873;28;20020;-32
2022/06/29 12:45:28;;;;;;;3.60;0.80;;;28.50;88.60;;;;;;5053290;28;20025;-31
2022/06/29 12:47:54;;;;;;;0.80;0.80;;;28.30;89.20;;;;;;5052075;28;20064;-38
2022/06/29 12:50:21;;;;;;;0.75;0.75;;;28.10;90.00;;;;;;5034809;28;20029;-34
2022/06/29 12:52:51;;;;;;;1.17;0.90;;;28.00;89.70;;;;;;5032985;28;20544;-33
2022/06/29 12:55:18;;;;;;;2.72;0.98;;;28.00;90.00;;;;;;5033176;28;20474;-32
2022/06/29 12:57:44;;;;;;;1.63;1.13;;;28.20;90.20;;;;;;5033678;28;20026;-34
2022/06/29 13:00:12;;;;;;;1.63;1.10;;;28.30;90.50;;;;;;5037109;28;20025;-31
2022/06/29 13:02:39;;;;;;;1.20;1.02;;;28.40;90.30;;;;;;5037110;28;20481;-32
2022/06/29 13:05:06;;;;;;;1.48;0.82;;;28.50;89.20;;;;;;5036812;28;20385;-32
2022/06/29 13:07:32;;;;;;;0.85;0.70;;;28.50;90.00;;;;;;5036813;28;20405;-32
2022/06/29 13:09:59;;;;;;;3.08;1.08;;;28.50;89.80;;;;;;5037138;28;20068;-33
2022/06/29 13:12:25;;;;;;;0.77;0.77;;;28.40;89.50;;;;;;5036473;28;20053;-30
2022/06/29 13:14:52;;;;;;;4.78;1.00;;;28.30;89.60;;;;;;5036866;28;20394;-33